sensor_id;sensor_type;location;lat;lon;timestamp;P1;durP1;ratioP1;P2;durP2;ratioP2
30472;SDS011;17263;48.160;11.452;2022-12-07T00:01:21;9.77;;;8.33;;
30472;SDS011;17263;48.160;11.452;2022-12-07T00:03:50;8.63;;;7.70;;
30472;SDS011;17263;48.160;11.452;2022-12-07T00:06:17;9.83;;;8.30;;
30472;SDS011;17263;48.160;11.452;2022-12-07T00:08:44;10.00;;;8.27;;
30472;SDS011;17263;48.160;11.452;2022-12-07T00:11:13;10.07;;;8.33;;
30472;SDS011;17263;48.160;11.452;2022-12-07T00:13:41;8.27;;;7.47;;
30472;SDS011;17263;48.160;11.452;2022-12-07T00:16:11;9.30;;;8.37;;
30472;SDS011;17263;48.160;11.452;2022-12-07T00:18:38;8.70;;;7.80;;
30472;SDS011;17263;48.160;11.452;2022-12-07T00:21:05;9.50;;;8.30;;
30472;SDS011;17263;48.160;11.452;2022-12-07T00:23:35;8.83;;;7.93;;
30472;SDS011;17263;48.160;11.452;2022-12-07T00:26:08;9.13;;;7.83;;
30472;SDS011;17263;48.160;11.452;2022-12-07T00:28:35;8.47;;;7.57;;
30472;SDS011;17263;48.160;11.452;2022-12-07T00:31:06;9.07;;;8.10;;
30472;SDS011;17263;48.160;11.452;2022-12-07T00:33:34;10.83;;;8.47;;
30472;SDS011;17263;48.160;11.452;2022-12-07T00:36:01;10.83;;;8.97;;
30472;SDS011;17263;48.160;11.452;2022-12-07T00:38:31;9.73;;;8.67;;
30472;SDS011;17263;48.160;11.452;2022-12-07T00:40:59;12.30;;;8.10;;
30472;SDS011;17263;48.160;11.452;2022-12-07T00:43:29;9.93;;;8.67;;
30472;SDS011;17263;48.160;11.452;2022-12-07T00:45:56;9.13;;;8.00;;
30472;SDS011;17263;48.160;11.452;2022-12-07T00:48:22;10.43;;;9.03;;
30472;SDS011;17263;48.160;11.452;2022-12-07T00:50:49;9.13;;;8.23;;
30472;SDS011;17263;48.160;11.452;2022-12-07T00:53:15;11.13;;;8.93;;
30472;SDS011;17263;48.160;11.452;2022-12-07T00:55:42;8.90;;;8.00;;
30472;SDS011;17263;48.160;11.452;2022-12-07T00:58:08;10.23;;;8.43;;
30472;SDS011;17263;48.160;11.452;2022-12-07T01:00:35;9.30;;;8.13;;
30472;SDS011;17263;48.160;11.452;2022-12-07T01:03:02;9.23;;;8.13;;
30472;SDS011;17263;48.160;11.452;2022-12-07T01:05:29;11.13;;;8.03;;
30472;SDS011;17263;48.160;11.452;2022-12-07T01:07:55;9.00;;;7.77;;
30472;SDS011;17263;48.160;11.452;2022-12-07T01:10:21;9.33;;;8.33;;
30472;SDS011;17263;48.160;11.452;2022-12-07T01:12:47;8.73;;;7.83;;
30472;SDS011;17263;48.160;11.452;2022-12-07T01:15:13;9.63;;;8.40;;
30472;SDS011;17263;48.160;11.452;2022-12-07T01:17:39;11.37;;;8.47;;
30472;SDS011;17263;48.160;11.452;2022-12-07T01:20:06;10.87;;;8.37;;
30472;SDS011;17263;48.160;11.452;2022-12-07T01:22:36;9.40;;;8.30;;
30472;SDS011;17263;48.160;11.452;2022-12-07T01:25:03;9.90;;;7.97;;
30472;SDS011;17263;48.160;11.452;2022-12-07T01:27:30;9.33;;;8.07;;
30472;SDS011;17263;48.160;11.452;2022-12-07T01:29:57;9.80;;;8.03;;
30472;SDS011;17263;48.160;11.452;2022-12-07T01:32:23;9.53;;;7.90;;
30472;SDS011;17263;48.160;11.452;2022-12-07T01:34:49;9.23;;;7.83;;
30472;SDS011;17263;48.160;11.452;2022-12-07T01:37:15;8.87;;;7.97;;
30472;SDS011;17263;48.160;11.452;2022-12-07T01:39:41;8.77;;;7.87;;
30472;SDS011;17263;48.160;11.452;2022-12-07T01:42:10;8.00;;;7.10;;
30472;SDS011;17263;48.160;11.452;2022-12-07T01:47:41;8.27;;;7.43;;
30472;SDS011;17263;48.160;11.452;2022-12-07T01:50:12;8.33;;;7.37;;
30472;SDS011;17263;48.160;11.452;2022-12-07T01:52:38;9.13;;;7.90;;
30472;SDS011;17263;48.160;11.452;2022-12-07T01:55:11;9.03;;;7.73;;
30472;SDS011;17263;48.160;11.452;2022-12-07T01:57:41;9.23;;;8.03;;
30472;SDS011;17263;48.160;11.452;2022-12-07T02:00:11;9.57;;;8.57;;
30472;SDS011;17263;48.160;11.452;2022-12-07T02:02:39;9.33;;;7.83;;
30472;SDS011;17263;48.160;11.452;2022-12-07T02:05:15;9.10;;;8.10;;
30472;SDS011;17263;48.160;11.452;2022-12-07T02:07:42;9.33;;;7.97;;
30472;SDS011;17263;48.160;11.452;2022-12-07T02:12:43;9.10;;;8.20;;
30472;SDS011;17263;48.160;11.452;2022-12-07T02:15:11;9.87;;;8.67;;
30472;SDS011;17263;48.160;11.452;2022-12-07T02:28:30;10.23;;;8.63;;
30472;SDS011;17263;48.160;11.452;2022-12-07T02:31:04;10.57;;;8.97;;
30472;SDS011;17263;48.160;11.452;2022-12-07T02:33:46;9.60;;;7.87;;
30472;SDS011;17263;48.160;11.452;2022-12-07T02:36:27;8.50;;;7.53;;
30472;SDS011;17263;48.160;11.452;2022-12-07T02:39:00;10.43;;;8.50;;
30472;SDS011;17263;48.160;11.452;2022-12-07T02:41:34;8.63;;;7.73;;
30472;SDS011;17263;48.160;11.452;2022-12-07T02:44:13;10.03;;;8.93;;
30472;SDS011;17263;48.160;11.452;2022-12-07T02:46:44;9.13;;;8.00;;
30472;SDS011;17263;48.160;11.452;2022-12-07T02:49:18;8.87;;;7.97;;
30472;SDS011;17263;48.160;11.452;2022-12-07T02:51:45;10.03;;;8.40;;
30472;SDS011;17263;48.160;11.452;2022-12-07T02:54:16;8.73;;;7.87;;
30472;SDS011;17263;48.160;11.452;2022-12-07T02:59:14;10.33;;;8.10;;
30472;SDS011;17263;48.160;11.452;2022-12-07T03:04:42;9.30;;;8.17;;
30472;SDS011;17263;48.160;11.452;2022-12-07T03:07:21;10.20;;;9.07;;
30472;SDS011;17263;48.160;11.452;2022-12-07T03:10:36;10.33;;;8.80;;
30472;SDS011;17263;48.160;11.452;2022-12-07T03:16:14;11.23;;;9.07;;
30472;SDS011;17263;48.160;11.452;2022-12-07T03:21:32;10.63;;;9.53;;
30472;SDS011;17263;48.160;11.452;2022-12-07T03:24:04;10.67;;;9.17;;
30472;SDS011;17263;48.160;11.452;2022-12-07T03:26:41;9.93;;;8.93;;
30472;SDS011;17263;48.160;11.452;2022-12-07T03:32:05;11.30;;;9.30;;
30472;SDS011;17263;48.160;11.452;2022-12-07T03:34:45;10.80;;;9.63;;
30472;SDS011;17263;48.160;11.452;2022-12-07T03:37:21;9.67;;;8.67;;
30472;SDS011;17263;48.160;11.452;2022-12-07T03:40:11;9.70;;;8.70;;
30472;SDS011;17263;48.160;11.452;2022-12-07T03:42:57;10.17;;;8.77;;
30472;SDS011;17263;48.160;11.452;2022-12-07T03:45:27;11.83;;;9.77;;
30472;SDS011;17263;48.160;11.452;2022-12-07T03:48:03;10.97;;;9.60;;
30472;SDS011;17263;48.160;11.452;2022-12-07T03:51:34;9.77;;;8.77;;
30472;SDS011;17263;48.160;11.452;2022-12-07T03:53:46;10.50;;;8.97;;
30472;SDS011;17263;48.160;11.452;2022-12-07T03:56:19;10.07;;;8.97;;
30472;SDS011;17263;48.160;11.452;2022-12-07T03:58:47;11.30;;;9.30;;
30472;SDS011;17263;48.160;11.452;2022-12-07T04:01:14;9.97;;;8.97;;
30472;SDS011;17263;48.160;11.452;2022-12-07T04:03:40;10.63;;;9.50;;
30472;SDS011;17263;48.160;11.452;2022-12-07T04:06:06;9.70;;;8.70;;
30472;SDS011;17263;48.160;11.452;2022-12-07T04:08:32;9.57;;;8.57;;
30472;SDS011;17263;48.160;11.452;2022-12-07T04:10:58;9.53;;;8.53;;
30472;SDS011;17263;48.160;11.452;2022-12-07T04:13:24;9.87;;;8.80;;
30472;SDS011;17263;48.160;11.452;2022-12-07T04:15:50;13.03;;;9.83;;
30472;SDS011;17263;48.160;11.452;2022-12-07T04:18:16;10.90;;;9.50;;
30472;SDS011;17263;48.160;11.452;2022-12-07T04:20:42;10.30;;;8.60;;
30472;SDS011;17263;48.160;11.452;2022-12-07T04:23:08;10.80;;;9.10;;
30472;SDS011;17263;48.160;11.452;2022-12-07T04:25:34;10.97;;;9.20;;
30472;SDS011;17263;48.160;11.452;2022-12-07T04:28:00;10.27;;;8.93;;
30472;SDS011;17263;48.160;11.452;2022-12-07T04:30:26;10.20;;;9.07;;
30472;SDS011;17263;48.160;11.452;2022-12-07T04:32:52;10.27;;;9.10;;
30472;SDS011;17263;48.160;11.452;2022-12-07T04:35:19;11.97;;;9.37;;
30472;SDS011;17263;48.160;11.452;2022-12-07T04:37:45;10.63;;;9.13;;
30472;SDS011;17263;48.160;11.452;2022-12-07T04:40:11;9.63;;;8.23;;
30472;SDS011;17263;48.160;11.452;2022-12-07T04:42:39;11.73;;;9.23;;
30472;SDS011;17263;48.160;11.452;2022-12-07T04:45:05;10.27;;;9.03;;
30472;SDS011;17263;48.160;11.452;2022-12-07T04:47:32;11.73;;;9.13;;
30472;SDS011;17263;48.160;11.452;2022-12-07T04:49:58;12.50;;;9.37;;
30472;SDS011;17263;48.160;11.452;2022-12-07T04:52:24;11.87;;;9.67;;
30472;SDS011;17263;48.160;11.452;2022-12-07T04:54:50;13.70;;;10.57;;
30472;SDS011;17263;48.160;11.452;2022-12-07T04:57:16;12.27;;;10.13;;
30472;SDS011;17263;48.160;11.452;2022-12-07T04:59:42;10.93;;;9.80;;
30472;SDS011;17263;48.160;11.452;2022-12-07T05:02:08;10.87;;;9.73;;
30472;SDS011;17263;48.160;11.452;2022-12-07T05:04:34;11.53;;;10.33;;
30472;SDS011;17263;48.160;11.452;2022-12-07T05:07:00;11.70;;;10.23;;
30472;SDS011;17263;48.160;11.452;2022-12-07T05:09:26;11.17;;;9.93;;
30472;SDS011;17263;48.160;11.452;2022-12-07T05:11:52;11.23;;;9.90;;
30472;SDS011;17263;48.160;11.452;2022-12-07T05:14:19;11.30;;;9.93;;
30472;SDS011;17263;48.160;11.452;2022-12-07T05:16:46;12.23;;;10.30;;
30472;SDS011;17263;48.160;11.452;2022-12-07T05:19:14;13.23;;;10.50;;
30472;SDS011;17263;48.160;11.452;2022-12-07T05:21:40;12.57;;;11.27;;
30472;SDS011;17263;48.160;11.452;2022-12-07T05:24:07;11.90;;;10.60;;
30472;SDS011;17263;48.160;11.452;2022-12-07T05:26:35;12.87;;;11.57;;
30472;SDS011;17263;48.160;11.452;2022-12-07T05:29:01;13.37;;;11.97;;
30472;SDS011;17263;48.160;11.452;2022-12-07T05:31:27;13.23;;;11.83;;
30472;SDS011;17263;48.160;11.452;2022-12-07T05:33:53;12.07;;;10.87;;
30472;SDS011;17263;48.160;11.452;2022-12-07T05:36:19;12.23;;;10.53;;
30472;SDS011;17263;48.160;11.452;2022-12-07T05:38:45;12.60;;;10.80;;
30472;SDS011;17263;48.160;11.452;2022-12-07T05:41:12;12.03;;;10.67;;
30472;SDS011;17263;48.160;11.452;2022-12-07T05:43:58;12.27;;;10.90;;
30472;SDS011;17263;48.160;11.452;2022-12-07T05:46:24;12.43;;;10.07;;
30472;SDS011;17263;48.160;11.452;2022-12-07T05:48:51;12.03;;;10.17;;
30472;SDS011;17263;48.160;11.452;2022-12-07T05:51:17;12.03;;;10.63;;
30472;SDS011;17263;48.160;11.452;2022-12-07T05:53:44;11.60;;;10.23;;
30472;SDS011;17263;48.160;11.452;2022-12-07T05:56:10;12.73;;;11.07;;
30472;SDS011;17263;48.160;11.452;2022-12-07T05:58:36;12.00;;;10.43;;
30472;SDS011;17263;48.160;11.452;2022-12-07T06:01:21;12.00;;;10.33;;
30472;SDS011;17263;48.160;11.452;2022-12-07T06:03:47;12.90;;;10.70;;
30472;SDS011;17263;48.160;11.452;2022-12-07T06:06:13;13.20;;;10.63;;
30472;SDS011;17263;48.160;11.452;2022-12-07T06:08:39;13.03;;;10.97;;
30472;SDS011;17263;48.160;11.452;2022-12-07T06:11:05;11.63;;;10.43;;
30472;SDS011;17263;48.160;11.452;2022-12-07T06:13:49;11.83;;;10.57;;
30472;SDS011;17263;48.160;11.452;2022-12-07T06:16:15;12.87;;;10.47;;
30472;SDS011;17263;48.160;11.452;2022-12-07T06:18:41;11.83;;;10.63;;
30472;SDS011;17263;48.160;11.452;2022-12-07T06:21:07;12.07;;;10.73;;
30472;SDS011;17263;48.160;11.452;2022-12-07T06:23:33;12.50;;;10.97;;
30472;SDS011;17263;48.160;11.452;2022-12-07T06:25:59;13.23;;;11.73;;
30472;SDS011;17263;48.160;11.452;2022-12-07T06:28:25;13.47;;;11.67;;
30472;SDS011;17263;48.160;11.452;2022-12-07T06:31:01;14.10;;;11.50;;
30472;SDS011;17263;48.160;11.452;2022-12-07T06:33:28;14.10;;;12.17;;
30472;SDS011;17263;48.160;11.452;2022-12-07T06:35:54;12.47;;;11.17;;
30472;SDS011;17263;48.160;11.452;2022-12-07T06:38:21;13.00;;;11.33;;
30472;SDS011;17263;48.160;11.452;2022-12-07T06:40:47;12.97;;;11.57;;
30472;SDS011;17263;48.160;11.452;2022-12-07T06:43:13;12.73;;;10.97;;
30472;SDS011;17263;48.160;11.452;2022-12-07T06:45:40;11.93;;;10.63;;
30472;SDS011;17263;48.160;11.452;2022-12-07T06:48:06;12.63;;;11.33;;
30472;SDS011;17263;48.160;11.452;2022-12-07T06:50:32;12.37;;;11.03;;
30472;SDS011;17263;48.160;11.452;2022-12-07T06:52:58;13.03;;;10.97;;
30472;SDS011;17263;48.160;11.452;2022-12-07T06:55:24;13.37;;;11.17;;
30472;SDS011;17263;48.160;11.452;2022-12-07T06:57:50;12.90;;;11.50;;
30472;SDS011;17263;48.160;11.452;2022-12-07T07:00:17;13.63;;;12.23;;
30472;SDS011;17263;48.160;11.452;2022-12-07T07:02:43;16.40;;;14.70;;
30472;SDS011;17263;48.160;11.452;2022-12-07T07:05:09;15.77;;;13.77;;
30472;SDS011;17263;48.160;11.452;2022-12-07T07:07:35;14.90;;;13.30;;
30472;SDS011;17263;48.160;11.452;2022-12-07T07:10:01;16.03;;;12.63;;
30472;SDS011;17263;48.160;11.452;2022-12-07T07:12:27;14.47;;;12.33;;
30472;SDS011;17263;48.160;11.452;2022-12-07T07:14:53;12.77;;;10.87;;
30472;SDS011;17263;48.160;11.452;2022-12-07T07:17:19;13.43;;;12.03;;
30472;SDS011;17263;48.160;11.452;2022-12-07T07:19:45;16.60;;;13.10;;
30472;SDS011;17263;48.160;11.452;2022-12-07T07:22:11;12.53;;;11.23;;
30472;SDS011;17263;48.160;11.452;2022-12-07T07:24:37;13.57;;;12.17;;
30472;SDS011;17263;48.160;11.452;2022-12-07T07:27:03;14.70;;;12.70;;
30472;SDS011;17263;48.160;11.452;2022-12-07T07:29:29;15.80;;;12.40;;
30472;SDS011;17263;48.160;11.452;2022-12-07T07:31:55;17.00;;;12.17;;
30472;SDS011;17263;48.160;11.452;2022-12-07T07:34:21;14.43;;;12.93;;
30472;SDS011;17263;48.160;11.452;2022-12-07T07:36:47;15.23;;;12.50;;
30472;SDS011;17263;48.160;11.452;2022-12-07T07:39:13;13.97;;;12.13;;
30472;SDS011;17263;48.160;11.452;2022-12-07T07:41:39;13.90;;;12.40;;
30472;SDS011;17263;48.160;11.452;2022-12-07T07:44:05;15.47;;;12.90;;
30472;SDS011;17263;48.160;11.452;2022-12-07T07:46:31;15.07;;;13.27;;
30472;SDS011;17263;48.160;11.452;2022-12-07T07:48:58;16.60;;;12.97;;
30472;SDS011;17263;48.160;11.452;2022-12-07T07:51:24;13.17;;;11.70;;
30472;SDS011;17263;48.160;11.452;2022-12-07T07:53:50;16.10;;;13.27;;
30472;SDS011;17263;48.160;11.452;2022-12-07T07:56:16;14.77;;;13.00;;
30472;SDS011;17263;48.160;11.452;2022-12-07T07:58:42;16.97;;;13.93;;
30472;SDS011;17263;48.160;11.452;2022-12-07T08:01:08;14.77;;;13.07;;
30472;SDS011;17263;48.160;11.452;2022-12-07T08:03:34;15.43;;;13.23;;
30472;SDS011;17263;48.160;11.452;2022-12-07T08:06:02;16.00;;;13.20;;
30472;SDS011;17263;48.160;11.452;2022-12-07T08:08:28;14.23;;;12.67;;
30472;SDS011;17263;48.160;11.452;2022-12-07T08:10:54;18.73;;;14.10;;
30472;SDS011;17263;48.160;11.452;2022-12-07T08:13:20;15.70;;;13.57;;
30472;SDS011;17263;48.160;11.452;2022-12-07T08:15:47;18.03;;;13.73;;
30472;SDS011;17263;48.160;11.452;2022-12-07T08:18:14;15.80;;;13.83;;
30472;SDS011;17263;48.160;11.452;2022-12-07T08:20:40;15.73;;;14.03;;
30472;SDS011;17263;48.160;11.452;2022-12-07T08:23:07;16.63;;;13.73;;
30472;SDS011;17263;48.160;11.452;2022-12-07T08:25:35;17.80;;;14.17;;
30472;SDS011;17263;48.160;11.452;2022-12-07T08:28:02;17.13;;;14.03;;
30472;SDS011;17263;48.160;11.452;2022-12-07T08:30:28;17.43;;;14.30;;
30472;SDS011;17263;48.160;11.452;2022-12-07T08:32:55;16.27;;;14.37;;
30472;SDS011;17263;48.160;11.452;2022-12-07T08:35:21;17.17;;;14.30;;
30472;SDS011;17263;48.160;11.452;2022-12-07T08:37:47;18.13;;;13.93;;
30472;SDS011;17263;48.160;11.452;2022-12-07T08:40:14;17.30;;;15.20;;
30472;SDS011;17263;48.160;11.452;2022-12-07T08:42:43;15.93;;;14.13;;
30472;SDS011;17263;48.160;11.452;2022-12-07T08:45:14;17.07;;;14.53;;
30472;SDS011;17263;48.160;11.452;2022-12-07T08:47:42;15.43;;;13.83;;
30472;SDS011;17263;48.160;11.452;2022-12-07T08:50:14;15.80;;;13.90;;
30472;SDS011;17263;48.160;11.452;2022-12-07T08:52:42;17.60;;;14.43;;
30472;SDS011;17263;48.160;11.452;2022-12-07T08:55:10;13.37;;;11.80;;
30472;SDS011;17263;48.160;11.452;2022-12-07T08:57:37;14.33;;;12.60;;
30472;SDS011;17263;48.160;11.452;2022-12-07T09:00:04;13.97;;;12.40;;
30472;SDS011;17263;48.160;11.452;2022-12-07T09:02:31;13.23;;;11.80;;
30472;SDS011;17263;48.160;11.452;2022-12-07T09:04:57;14.53;;;12.47;;
30472;SDS011;17263;48.160;11.452;2022-12-07T09:07:23;15.93;;;12.83;;
30472;SDS011;17263;48.160;11.452;2022-12-07T09:09:50;14.70;;;12.67;;
30472;SDS011;17263;48.160;11.452;2022-12-07T09:12:16;14.60;;;12.63;;
30472;SDS011;17263;48.160;11.452;2022-12-07T09:14:42;16.00;;;12.33;;
30472;SDS011;17263;48.160;11.452;2022-12-07T09:17:09;13.83;;;12.43;;
30472;SDS011;17263;48.160;11.452;2022-12-07T09:19:37;13.30;;;11.90;;
30472;SDS011;17263;48.160;11.452;2022-12-07T09:22:04;15.80;;;12.00;;
30472;SDS011;17263;48.160;11.452;2022-12-07T09:24:31;14.70;;;12.37;;
30472;SDS011;17263;48.160;11.452;2022-12-07T09:27:01;17.33;;;12.93;;
30472;SDS011;17263;48.160;11.452;2022-12-07T09:29:27;14.70;;;13.10;;
30472;SDS011;17263;48.160;11.452;2022-12-07T09:31:53;17.23;;;12.90;;
30472;SDS011;17263;48.160;11.452;2022-12-07T09:34:19;16.07;;;12.90;;
30472;SDS011;17263;48.160;11.452;2022-12-07T09:36:45;14.70;;;12.87;;
30472;SDS011;17263;48.160;11.452;2022-12-07T09:39:11;14.53;;;11.90;;
30472;SDS011;17263;48.160;11.452;2022-12-07T09:41:41;13.17;;;11.77;;
30472;SDS011;17263;48.160;11.452;2022-12-07T09:44:11;16.10;;;12.20;;
30472;SDS011;17263;48.160;11.452;2022-12-07T09:46:41;15.77;;;12.87;;
30472;SDS011;17263;48.160;11.452;2022-12-07T09:49:10;14.37;;;12.33;;
30472;SDS011;17263;48.160;11.452;2022-12-07T09:51:40;17.40;;;13.07;;
30472;SDS011;17263;48.160;11.452;2022-12-07T09:54:07;14.10;;;12.30;;
30472;SDS011;17263;48.160;11.452;2022-12-07T09:56:37;16.07;;;12.87;;
30472;SDS011;17263;48.160;11.452;2022-12-07T09:59:03;14.33;;;12.23;;
30472;SDS011;17263;48.160;11.452;2022-12-07T10:01:33;14.07;;;12.10;;
30472;SDS011;17263;48.160;11.452;2022-12-07T10:04:09;15.53;;;12.07;;
30472;SDS011;17263;48.160;11.452;2022-12-07T10:06:39;12.43;;;11.13;;
30472;SDS011;17263;48.160;11.452;2022-12-07T10:09:10;12.47;;;10.57;;
30472;SDS011;17263;48.160;11.452;2022-12-07T10:12:03;12.67;;;11.30;;
30472;SDS011;17263;48.160;11.452;2022-12-07T10:14:36;11.73;;;10.47;;
30472;SDS011;17263;48.160;11.452;2022-12-07T10:17:25;13.80;;;11.53;;
30472;SDS011;17263;48.160;11.452;2022-12-07T10:20:17;12.67;;;10.47;;
30472;SDS011;17263;48.160;11.452;2022-12-07T10:22:57;11.10;;;9.73;;
30472;SDS011;17263;48.160;11.452;2022-12-07T10:25:32;12.33;;;10.27;;
30472;SDS011;17263;48.160;11.452;2022-12-07T10:30:52;13.07;;;10.00;;
30472;SDS011;17263;48.160;11.452;2022-12-07T10:33:27;12.77;;;10.77;;
30472;SDS011;17263;48.160;11.452;2022-12-07T10:36:24;12.50;;;10.70;;
30472;SDS011;17263;48.160;11.452;2022-12-07T10:38:59;11.77;;;9.53;;
30472;SDS011;17263;48.160;11.452;2022-12-07T10:41:26;10.33;;;9.27;;
30472;SDS011;17263;48.160;11.452;2022-12-07T10:43:53;11.37;;;9.63;;
30472;SDS011;17263;48.160;11.452;2022-12-07T10:51:57;9.50;;;7.93;;
30472;SDS011;17263;48.160;11.452;2022-12-07T10:57:49;9.47;;;7.60;;
30472;SDS011;17263;48.160;11.452;2022-12-07T11:00:31;10.87;;;8.20;;
30472;SDS011;17263;48.160;11.452;2022-12-07T11:08:57;11.00;;;8.20;;
30472;SDS011;17263;48.160;11.452;2022-12-07T11:11:39;7.80;;;7.00;;
30472;SDS011;17263;48.160;11.452;2022-12-07T11:14:35;9.03;;;7.17;;
30472;SDS011;17263;48.160;11.452;2022-12-07T11:17:31;7.73;;;6.93;;
30472;SDS011;17263;48.160;11.452;2022-12-07T11:23:11;7.87;;;6.63;;
30472;SDS011;17263;48.160;11.452;2022-12-07T11:25:57;7.97;;;6.07;;
30472;SDS011;17263;48.160;11.452;2022-12-07T11:34:10;6.60;;;5.80;;
30472;SDS011;17263;48.160;11.452;2022-12-07T11:36:56;7.33;;;6.20;;
30472;SDS011;17263;48.160;11.452;2022-12-07T11:39:25;8.17;;;6.30;;
30472;SDS011;17263;48.160;11.452;2022-12-07T11:41:54;7.07;;;6.37;;
30472;SDS011;17263;48.160;11.452;2022-12-07T11:44:38;7.40;;;6.60;;
30472;SDS011;17263;48.160;11.452;2022-12-07T11:47:10;8.63;;;7.00;;
30472;SDS011;17263;48.160;11.452;2022-12-07T11:49:44;7.70;;;6.60;;
30472;SDS011;17263;48.160;11.452;2022-12-07T11:52:38;8.20;;;6.60;;
30472;SDS011;17263;48.160;11.452;2022-12-07T11:55:15;13.23;;;6.40;;
30472;SDS011;17263;48.160;11.452;2022-12-07T11:58:07;7.47;;;5.70;;
30472;SDS011;17263;48.160;11.452;2022-12-07T12:00:44;6.27;;;5.63;;
30472;SDS011;17263;48.160;11.452;2022-12-07T12:03:12;7.97;;;5.57;;
30472;SDS011;17263;48.160;11.452;2022-12-07T12:05:44;6.30;;;5.33;;
30472;SDS011;17263;48.160;11.452;2022-12-07T12:08:16;7.50;;;5.33;;
30472;SDS011;17263;48.160;11.452;2022-12-07T12:18:49;6.83;;;5.83;;
30472;SDS011;17263;48.160;11.452;2022-12-07T12:21:28;8.57;;;6.17;;
30472;SDS011;17263;48.160;11.452;2022-12-07T12:23:57;8.40;;;7.03;;
30472;SDS011;17263;48.160;11.452;2022-12-07T12:26:51;8.33;;;6.60;;
30472;SDS011;17263;48.160;11.452;2022-12-07T12:29:42;9.30;;;7.10;;
30472;SDS011;17263;48.160;11.452;2022-12-07T12:32:16;7.97;;;6.67;;
30472;SDS011;17263;48.160;11.452;2022-12-07T12:45:25;11.53;;;7.93;;
30472;SDS011;17263;48.160;11.452;2022-12-07T12:50:23;9.77;;;7.77;;
30472;SDS011;17263;48.160;11.452;2022-12-07T12:53:16;8.63;;;7.43;;
30472;SDS011;17263;48.160;11.452;2022-12-07T12:55:54;8.87;;;7.47;;
30472;SDS011;17263;48.160;11.452;2022-12-07T12:58:41;12.80;;;8.60;;
30472;SDS011;17263;48.160;11.452;2022-12-07T13:04:18;8.80;;;7.57;;
30472;SDS011;17263;48.160;11.452;2022-12-07T13:07:00;9.10;;;7.73;;
30472;SDS011;17263;48.160;11.452;2022-12-07T13:09:27;8.40;;;7.47;;
30472;SDS011;17263;48.160;11.452;2022-12-07T13:12:11;9.83;;;7.23;;
30472;SDS011;17263;48.160;11.452;2022-12-07T13:14:40;8.63;;;7.53;;
30472;SDS011;17263;48.160;11.452;2022-12-07T13:17:10;10.87;;;7.90;;
30472;SDS011;17263;48.160;11.452;2022-12-07T13:19:55;8.97;;;7.43;;
30472;SDS011;17263;48.160;11.452;2022-12-07T13:27:43;10.40;;;7.97;;
30472;SDS011;17263;48.160;11.452;2022-12-07T13:30:20;9.00;;;7.07;;
30472;SDS011;17263;48.160;11.452;2022-12-07T13:32:54;9.40;;;8.07;;
30472;SDS011;17263;48.160;11.452;2022-12-07T13:35:34;10.30;;;8.37;;
30472;SDS011;17263;48.160;11.452;2022-12-07T13:38:05;9.10;;;8.10;;
30472;SDS011;17263;48.160;11.452;2022-12-07T13:40:42;9.33;;;7.50;;
30472;SDS011;17263;48.160;11.452;2022-12-07T13:43:12;9.80;;;7.93;;
30472;SDS011;17263;48.160;11.452;2022-12-07T13:45:41;10.13;;;8.07;;
30472;SDS011;17263;48.160;11.452;2022-12-07T13:51:16;8.03;;;6.67;;
30472;SDS011;17263;48.160;11.452;2022-12-07T13:53:54;6.00;;;5.40;;
30472;SDS011;17263;48.160;11.452;2022-12-07T13:56:29;7.77;;;6.27;;
30472;SDS011;17263;48.160;11.452;2022-12-07T13:58:59;6.87;;;5.67;;
30472;SDS011;17263;48.160;11.452;2022-12-07T14:01:25;8.27;;;6.43;;
30472;SDS011;17263;48.160;11.452;2022-12-07T14:03:53;13.77;;;7.83;;
30472;SDS011;17263;48.160;11.452;2022-12-07T14:06:22;11.40;;;7.40;;
30472;SDS011;17263;48.160;11.452;2022-12-07T14:09:14;6.67;;;5.63;;
30472;SDS011;17263;48.160;11.452;2022-12-07T14:11:44;10.40;;;5.67;;
30472;SDS011;17263;48.160;11.452;2022-12-07T14:14:17;6.03;;;5.30;;
30472;SDS011;17263;48.160;11.452;2022-12-07T14:16:58;5.77;;;4.67;;
30472;SDS011;17263;48.160;11.452;2022-12-07T14:19:41;6.37;;;5.30;;
30472;SDS011;17263;48.160;11.452;2022-12-07T14:22:08;6.27;;;4.73;;
30472;SDS011;17263;48.160;11.452;2022-12-07T14:24:43;7.93;;;5.57;;
30472;SDS011;17263;48.160;11.452;2022-12-07T14:27:22;7.20;;;5.57;;
30472;SDS011;17263;48.160;11.452;2022-12-07T14:29:51;6.77;;;5.20;;
30472;SDS011;17263;48.160;11.452;2022-12-07T14:32:18;6.20;;;5.10;;
30472;SDS011;17263;48.160;11.452;2022-12-07T14:37:49;7.07;;;5.47;;
30472;SDS011;17263;48.160;11.452;2022-12-07T14:40:16;6.53;;;5.83;;
30472;SDS011;17263;48.160;11.452;2022-12-07T14:42:45;7.63;;;6.20;;
30472;SDS011;17263;48.160;11.452;2022-12-07T14:45:13;6.97;;;6.27;;
30472;SDS011;17263;48.160;11.452;2022-12-07T14:47:42;6.53;;;5.60;;
30472;SDS011;17263;48.160;11.452;2022-12-07T14:50:11;7.70;;;6.17;;
30472;SDS011;17263;48.160;11.452;2022-12-07T14:52:38;10.03;;;7.00;;
30472;SDS011;17263;48.160;11.452;2022-12-07T14:55:05;7.43;;;6.40;;
30472;SDS011;17263;48.160;11.452;2022-12-07T14:57:37;9.37;;;6.77;;
30472;SDS011;17263;48.160;11.452;2022-12-07T15:00:04;6.90;;;6.20;;
30472;SDS011;17263;48.160;11.452;2022-12-07T15:02:30;7.90;;;6.83;;
30472;SDS011;17263;48.160;11.452;2022-12-07T15:04:56;8.47;;;6.90;;
30472;SDS011;17263;48.160;11.452;2022-12-07T15:07:22;7.63;;;6.33;;
30472;SDS011;17263;48.160;11.452;2022-12-07T15:09:49;8.73;;;6.73;;
30472;SDS011;17263;48.160;11.452;2022-12-07T15:12:15;7.93;;;6.73;;
30472;SDS011;17263;48.160;11.452;2022-12-07T15:14:41;10.63;;;7.17;;
30472;SDS011;17263;48.160;11.452;2022-12-07T15:17:09;8.97;;;6.90;;
30472;SDS011;17263;48.160;11.452;2022-12-07T15:19:36;8.73;;;7.20;;
30472;SDS011;17263;48.160;11.452;2022-12-07T15:22:02;10.83;;;7.57;;
30472;SDS011;17263;48.160;11.452;2022-12-07T15:24:28;9.77;;;7.70;;
30472;SDS011;17263;48.160;11.452;2022-12-07T15:26:54;10.17;;;7.73;;
30472;SDS011;17263;48.160;11.452;2022-12-07T15:29:20;8.87;;;7.80;;
30472;SDS011;17263;48.160;11.452;2022-12-07T15:31:48;11.33;;;8.43;;
30472;SDS011;17263;48.160;11.452;2022-12-07T15:34:14;12.80;;;8.73;;
30472;SDS011;17263;48.160;11.452;2022-12-07T15:36:40;11.20;;;8.40;;
30472;SDS011;17263;48.160;11.452;2022-12-07T15:39:06;11.37;;;8.37;;
30472;SDS011;17263;48.160;11.452;2022-12-07T15:41:34;11.33;;;9.13;;
30472;SDS011;17263;48.160;11.452;2022-12-07T15:44:01;11.47;;;8.57;;
30472;SDS011;17263;48.160;11.452;2022-12-07T15:46:45;11.50;;;9.00;;
30472;SDS011;17263;48.160;11.452;2022-12-07T15:49:13;12.50;;;8.97;;
30472;SDS011;17263;48.160;11.452;2022-12-07T15:51:41;16.87;;;11.60;;
30472;SDS011;17263;48.160;11.452;2022-12-07T15:54:11;14.57;;;10.00;;
30472;SDS011;17263;48.160;11.452;2022-12-07T15:56:45;12.30;;;9.20;;
30472;SDS011;17263;48.160;11.452;2022-12-07T15:59:11;11.90;;;9.17;;
30472;SDS011;17263;48.160;11.452;2022-12-07T16:01:37;14.83;;;10.03;;
30472;SDS011;17263;48.160;11.452;2022-12-07T16:04:03;10.40;;;8.77;;
30472;SDS011;17263;48.160;11.452;2022-12-07T16:06:30;10.23;;;8.90;;
30472;SDS011;17263;48.160;11.452;2022-12-07T16:08:56;14.93;;;9.20;;
30472;SDS011;17263;48.160;11.452;2022-12-07T16:11:22;13.50;;;9.43;;